Great — TCYV6 — position and weather

sailwx.info

Track history (hours):
 
Tides and Currents Weather Stations Pressure Air Temp Water Temp Dewpoint Dewpoint Depression Visibility Wind Speed Wind Dir Waves Ship Positions

Great

Last reported at 2016-Feb-07 11:21 UTC. Time now 2016-Feb-08 12:31 UTC.
Position N 36°42' E 014°28'.

Length 186 m; draft 10.7 m.

Type: Cargo ship. MMSI: 271042241.

Date/timePositionNaut miles runAvg speedWind from/ knotsBaromVisibWave heightAir tempDewpointWater temp
2016-Feb-07 11:21N 36°42' E 014°28'911.2
2016-Feb-07 10:32N 36°46' E 014°18'1110.9
2016-Feb-07 09:31N 36°51' E 014°05'1010.8
2016-Feb-07 08:33N 36°56' E 013°54'1211.1
2016-Feb-07 07:30N 37°01' E 013°41'53811.2
2016-Feb-05 07:17N 39°09' E 002°37'912.1
2016-Feb-05 06:33N 39°12' E 002°26'1211.8
2016-Feb-05 05:32N 39°17' E 002°12'1211.6
2016-Feb-05 04:29N 39°21' E 001°57'  
2016-Jan-31 08:31N 39°58' E 000°02'75 1.8
2016-Jan-29 14:26N 39°29' E 001°32'1211.7
2016-Jan-29 13:26N 39°24' E 001°46'1111.8
2016-Jan-29 12:32N 39°20' E 001°59'1111.4
2016-Jan-29 11:33N 39°16' E 002°12'1111.3
2016-Jan-29 10:33N 39°11' E 002°25'1111.2
2016-Jan-29 09:33N 39°07' E 002°39'1111.1
2016-Jan-29 08:33N 39°03' E 002°52'1211.4
2016-Jan-29 07:32N 39°02' E 003°07'1111.4
2016-Jan-29 06:33N 39°01' E 003°21'  
Track history (hours):
 
Tides and Currents Weather Stations Pressure Air Temp Water Temp Dewpoint Dewpoint Depression Visibility Wind Speed Wind Dir Waves Ship Positions

Great

Last reported at 2016-Feb-07 11:21 UTC. Time now 2016-Feb-08 12:31 UTC.
Position N 36°42' E 014°28'.

Length 186 m; draft 10.7 m.

Type: Cargo ship. MMSI: 271042241.

Date/timePositionNaut miles runAvg speedWind from/ knotsBaromVisibWave heightAir tempDewpointWater temp
2016-Feb-07 11:21N 36°42' E 014°28'911.2
2016-Feb-07 10:32N 36°46' E 014°18'1110.9
2016-Feb-07 09:31N 36°51' E 014°05'1010.8
2016-Feb-07 08:33N 36°56' E 013°54'1211.1
2016-Feb-07 07:30N 37°01' E 013°41'53811.2
2016-Feb-05 07:17N 39°09' E 002°37'912.1
2016-Feb-05 06:33N 39°12' E 002°26'1211.8
2016-Feb-05 05:32N 39°17' E 002°12'1211.6
2016-Feb-05 04:29N 39°21' E 001°57'  
2016-Jan-31 08:31N 39°58' E 000°02'75 1.8
2016-Jan-29 14:26N 39°29' E 001°32'1211.7
2016-Jan-29 13:26N 39°24' E 001°46'1111.8
2016-Jan-29 12:32N 39°20' E 001°59'1111.4
2016-Jan-29 11:33N 39°16' E 002°12'1111.3
2016-Jan-29 10:33N 39°11' E 002°25'1111.2
2016-Jan-29 09:33N 39°07' E 002°39'1111.1
2016-Jan-29 08:33N 39°03' E 002°52'1211.4
2016-Jan-29 07:32N 39°02' E 003°07'1111.4
2016-Jan-29 06:33N 39°01' E 003°21'  

Dump ship's entire track history